Terminal Aerodrome Forecast
Issued by NWS

Home | Current Version | Previous Version | Text Only | Print | Product List | Glossary On
Versions: 1 2 3 4 5 6 7 8 9 10 11 12
000
FTUS42 TJSJ 302340
TAFKPK
TAF
TKPK 302340Z 3100/3124 06005KT P6SM FEW016 SCT070
     FM311330 09010KT P6SM VCTS SCT016CB BKN035
     FM312300 07009KT P6SM FEW018 SCT120
      AMD NOT SKED 3102/3111=

USA.gov is the U.S. government's official web portal to all federal, state and local government web resources and services.